createdAt,value
2023-02-23T00:02:01.605Z,95303.00
2023-02-23T00:07:30.403Z,95299.00
2023-02-23T00:13:02.335Z,95298.00
2023-02-23T00:18:30.527Z,95296.00
2023-02-23T00:24:11.476Z,95299.00
2023-02-23T00:29:43.842Z,95306.00
2023-02-23T00:35:17.617Z,95306.00
2023-02-23T00:40:46.314Z,95310.00
2023-02-23T00:46:21.364Z,95300.00
2023-02-23T00:51:50.613Z,95307.00
2023-02-23T00:57:18.772Z,95306.00
2023-02-23T01:02:49.721Z,95304.00
2023-02-23T01:08:19.103Z,95294.00
2023-02-23T01:13:48.468Z,95302.00
2023-02-23T01:19:17.331Z,95293.00
2023-02-23T01:24:45.293Z,95301.00
2023-02-23T01:30:15.239Z,95302.00
2023-02-23T01:35:45.104Z,95313.00
2023-02-23T01:41:15.521Z,95299.00
2023-02-23T01:46:46.396Z,95307.00
2023-02-23T01:52:17.510Z,95292.00
2023-02-23T01:57:45.820Z,95298.00
2023-02-23T02:04:06.757Z,95299.00
2023-02-23T02:09:39.860Z,95303.00
2023-02-23T02:15:17.361Z,95293.00
2023-02-23T02:21:24.398Z,95286.00
2023-02-23T02:27:26.902Z,95274.00
2023-02-23T02:33:34.534Z,95266.00
2023-02-23T02:39:24.096Z,95275.00
2023-02-23T02:45:18.876Z,95275.00
2023-02-23T02:51:05.006Z,95275.00
2023-02-23T02:56:40.614Z,95271.00
2023-02-23T03:02:38.314Z,95264.00
2023-02-23T03:08:28.500Z,95275.00
2023-02-23T03:14:36.088Z,95271.00
2023-02-23T03:20:43.657Z,95266.00
2023-02-23T03:26:45.560Z,95284.00
2023-02-23T03:32:46.043Z,95277.00
2023-02-23T03:39:17.534Z,95273.00
2023-02-23T03:45:07.604Z,95287.00
2023-02-23T03:51:06.108Z,95273.00
2023-02-23T03:57:00.328Z,95279.00
2023-02-23T04:02:49.293Z,95298.00
2023-02-23T04:08:38.384Z,95304.00
2023-02-23T04:14:35.595Z,95293.00
2023-02-23T04:20:07.160Z,95293.00
2023-02-23T04:25:35.996Z,95288.00
2023-02-23T04:31:06.006Z,95292.00
2023-02-23T04:36:34.311Z,95291.00
2023-02-23T04:42:04.201Z,95293.00
2023-02-23T04:47:32.404Z,95294.00
2023-02-23T04:53:00.330Z,95294.00
2023-02-23T04:58:28.275Z,95296.00
2023-02-23T05:03:56.159Z,95293.00
2023-02-23T05:09:24.075Z,95301.00
2023-02-23T05:14:52.228Z,95294.00
2023-02-23T05:20:20.289Z,95301.00
2023-02-23T05:25:48.280Z,95291.00
2023-02-23T05:31:17.565Z,95296.00
2023-02-23T05:36:46.043Z,95300.00
2023-02-23T05:42:14.182Z,95295.00
2023-02-23T05:47:42.092Z,95311.00
2023-02-23T05:53:10.580Z,95308.00
2023-02-23T05:58:38.621Z,95305.00
2023-02-23T06:04:07.498Z,95308.00
2023-02-23T06:09:36.371Z,95318.00
2023-02-23T06:15:08.208Z,95306.00
2023-02-23T06:20:40.235Z,95316.00
2023-02-23T06:26:10.134Z,95320.00
2023-02-23T06:31:39.075Z,95316.00
2023-02-23T06:37:09.191Z,95331.00
2023-02-23T06:42:37.586Z,95339.00
2023-02-23T06:48:05.791Z,95348.00
2023-02-23T06:53:33.876Z,95350.00
2023-02-23T06:59:01.672Z,95359.00
2023-02-23T07:04:30.280Z,95352.00
2023-02-23T07:09:58.647Z,95342.00
2023-02-23T07:15:27.053Z,95345.00
2023-02-23T07:20:55.292Z,95350.00
2023-02-23T07:26:23.303Z,95349.00
2023-02-23T07:31:51.489Z,95351.00
2023-02-23T07:37:19.615Z,95367.00
2023-02-23T07:42:47.346Z,95344.00
2023-02-23T07:48:15.875Z,95365.00
2023-02-23T07:53:45.188Z,95358.00
2023-02-23T07:59:13.057Z,95354.00
2023-02-23T08:04:43.211Z,95370.00
2023-02-23T08:10:11.898Z,95359.00
2023-02-23T08:15:40.143Z,95376.00
2023-02-23T08:21:08.252Z,95373.00
2023-02-23T08:26:38.272Z,95376.00
2023-02-23T08:32:09.381Z,95377.00
2023-02-23T08:37:37.759Z,95376.00
2023-02-23T08:43:05.707Z,95368.00
2023-02-23T08:48:34.559Z,95370.00
2023-02-23T08:54:02.924Z,95371.00
2023-02-23T08:59:31.095Z,95369.00
2023-02-23T09:04:59.344Z,95377.00
2023-02-23T09:10:29.160Z,95371.00
2023-02-23T09:15:57.449Z,95378.00
2023-02-23T09:21:26.454Z,95383.00
2023-02-23T09:26:54.246Z,95387.00
2023-02-23T09:32:22.530Z,95382.00
2023-02-23T09:37:54.922Z,95381.00
2023-02-23T09:43:37.582Z,95382.00
2023-02-23T09:49:16.364Z,95390.00
2023-02-23T09:54:44.868Z,95399.00
2023-02-23T10:00:29.895Z,95401.00
2023-02-23T10:06:06.877Z,95400.00
2023-02-23T10:11:46.469Z,95398.00
2023-02-23T10:17:44.793Z,95393.00
2023-02-23T10:23:45.194Z,95387.00
2023-02-23T10:29:37.796Z,95391.00
2023-02-23T10:35:16.761Z,95383.00
2023-02-23T10:40:51.452Z,95392.00
2023-02-23T10:46:22.895Z,95380.00
2023-02-23T10:51:52.486Z,95385.00
2023-02-23T10:57:32.485Z,95379.00
2023-02-23T11:03:03.398Z,95379.00
2023-02-23T11:08:36.548Z,95386.00
2023-02-23T11:14:17.485Z,95365.00
2023-02-23T11:19:46.474Z,95373.00
2023-02-23T11:25:29.037Z,95359.00
2023-02-23T11:31:05.688Z,95361.00
2023-02-23T11:36:39.497Z,95350.00
2023-02-23T11:42:20.724Z,95347.00
2023-02-23T11:48:01.526Z,95344.00
2023-02-23T11:53:45.330Z,95334.00
2023-02-23T11:59:24.231Z,95337.00
2023-02-23T12:05:29.855Z,95332.00
2023-02-23T12:11:03.670Z,95329.00
2023-02-23T12:16:56.219Z,95319.00
2023-02-23T12:22:48.388Z,95313.00
2023-02-23T12:28:42.308Z,95313.00
2023-02-23T12:34:25.235Z,95312.00
2023-02-23T12:39:59.175Z,95311.00
2023-02-23T12:45:50.769Z,95307.00
2023-02-23T12:51:25.378Z,95302.00
2023-02-23T12:56:58.962Z,95303.00
2023-02-23T13:02:45.615Z,95294.00
2023-02-23T13:09:02.566Z,95298.00
2023-02-23T13:14:56.275Z,95290.00
2023-02-23T13:21:00.401Z,95296.00
2023-02-23T13:26:39.598Z,95292.00
2023-02-23T13:32:18.033Z,95293.00
2023-02-23T13:37:53.461Z,95293.00
2023-02-23T13:44:09.402Z,95291.00
2023-02-23T13:49:58.361Z,95286.00
2023-02-23T13:55:29.446Z,95290.00
2023-02-23T14:01:12.447Z,95280.00
2023-02-23T14:06:58.196Z,95277.00
2023-02-23T14:12:42.591Z,95280.00
2023-02-23T14:18:21.104Z,95277.00
2023-02-23T14:24:24.428Z,95287.00
2023-02-23T14:30:10.742Z,95285.00
2023-02-23T14:35:44.946Z,95277.00
2023-02-23T14:41:13.414Z,95269.00
2023-02-23T14:46:53.776Z,95263.00
2023-02-23T14:52:35.379Z,95268.00
2023-02-23T14:58:38.445Z,95271.00
2023-02-23T15:04:14.450Z,95274.00
2023-02-23T15:09:43.858Z,95268.00
2023-02-23T15:15:19.293Z,95267.00
2023-02-23T15:20:49.228Z,95269.00
2023-02-23T15:26:38.986Z,95266.00
2023-02-23T15:32:21.773Z,95260.00
2023-02-23T15:37:59.419Z,95265.00
2023-02-23T15:43:39.860Z,95264.00
2023-02-23T15:49:13.412Z,95264.00
2023-02-23T15:55:01.897Z,95262.00
2023-02-23T16:00:57.320Z,95266.00
2023-02-23T16:06:35.638Z,95263.00
2023-02-23T16:12:18.950Z,95253.00
2023-02-23T16:18:01.389Z,95255.00
2023-02-23T16:23:40.280Z,95261.00
2023-02-23T16:29:15.009Z,95259.00
2023-02-23T16:35:19.249Z,95260.00
2023-02-23T16:40:48.841Z,95260.00
2023-02-23T16:46:18.105Z,95264.00
2023-02-23T16:51:46.750Z,95265.00
2023-02-23T16:57:25.038Z,95267.00
2023-02-23T17:02:53.546Z,95266.00
2023-02-23T17:08:21.977Z,95266.00
2023-02-23T17:13:49.664Z,95270.00
2023-02-23T17:19:18.866Z,95266.00
2023-02-23T17:24:47.033Z,95274.00
2023-02-23T17:30:15.407Z,95274.00
2023-02-23T17:35:44.090Z,95266.00
2023-02-23T17:41:17.840Z,95269.00
2023-02-23T17:46:45.821Z,95273.00
2023-02-23T17:52:14.119Z,95277.00
2023-02-23T17:57:42.423Z,95273.00
2023-02-23T18:03:10.379Z,95276.00
2023-02-23T18:08:41.986Z,95275.00
2023-02-23T18:14:13.877Z,95271.00
2023-02-23T18:19:45.761Z,95274.00
2023-02-23T18:25:25.626Z,95284.00
2023-02-23T18:30:53.540Z,95267.00
2023-02-23T18:36:31.383Z,95269.00
2023-02-23T18:42:00.561Z,95272.00
2023-02-23T18:47:30.109Z,95264.00
2023-02-23T18:53:03.466Z,95270.00
2023-02-23T18:58:31.794Z,95275.00
2023-02-23T19:04:03.419Z,95267.00
2023-02-23T19:09:31.440Z,95269.00
2023-02-23T19:14:59.464Z,95267.00
2023-02-23T19:20:32.565Z,95261.00
2023-02-23T19:26:03.423Z,95263.00
2023-02-23T19:31:31.753Z,95260.00
2023-02-23T19:37:02.008Z,95266.00
2023-02-23T19:42:43.185Z,95264.00
2023-02-23T19:48:16.335Z,95265.00
2023-02-23T19:53:44.970Z,95269.00
2023-02-23T19:59:13.323Z,95276.00
2023-02-23T20:04:41.345Z,95267.00
2023-02-23T20:10:14.066Z,95279.00
2023-02-23T20:15:42.996Z,95270.00
2023-02-23T20:21:19.684Z,95263.00
2023-02-23T20:26:49.604Z,95272.00
2023-02-23T20:32:20.837Z,95267.00
2023-02-23T20:37:49.302Z,95271.00
2023-02-23T20:43:22.865Z,95261.00
2023-02-23T20:49:18.887Z,95256.00
2023-02-23T20:54:50.581Z,95252.00
2023-02-23T21:00:31.991Z,95261.00
2023-02-23T21:06:26.954Z,95250.00
2023-02-23T21:12:06.065Z,95249.00
2023-02-23T21:17:40.685Z,95241.00
2023-02-23T21:23:18.821Z,95238.00
2023-02-23T21:28:59.458Z,95233.00
2023-02-23T21:34:28.129Z,95235.00
2023-02-23T21:40:04.185Z,95238.00
2023-02-23T21:45:57.939Z,95242.00
2023-02-23T21:51:34.825Z,95234.00
2023-02-23T21:57:31.089Z,95238.00
2023-02-23T22:04:13.735Z,95225.00
2023-02-23T22:09:23.993Z,95224.00
2023-02-23T22:14:58.976Z,95218.00
2023-02-23T22:26:39.866Z,95217.00
2023-02-23T22:32:14.635Z,95212.00
2023-02-23T22:37:43.157Z,95215.00
2023-02-23T22:43:28.521Z,95211.00
2023-02-23T22:49:24.553Z,95202.00
2023-02-23T22:54:53.486Z,95206.00
2023-02-23T23:00:25.675Z,95205.00
2023-02-23T23:05:56.983Z,95206.00
2023-02-23T23:11:32.079Z,95190.00
2023-02-23T23:17:00.470Z,95184.00
2023-02-23T23:22:29.284Z,95180.00
2023-02-23T23:27:59.746Z,95171.00
2023-02-23T23:33:30.817Z,95171.00
2023-02-23T23:39:15.424Z,95161.00
2023-02-23T23:44:45.776Z,95166.00
2023-02-23T23:50:19.337Z,95150.00
2023-02-23T23:55:50.726Z,95156.00
